createdAt,value
2019-04-30T00:02:49.754Z,98998.10
2019-04-30T00:07:55.056Z,98986.21
2019-04-30T00:12:58.225Z,98991.63
2019-04-30T00:18:01.931Z,98989.88
2019-04-30T00:23:06.672Z,98989.13
2019-04-30T00:28:09.998Z,98982.90
2019-04-30T00:33:15.287Z,98988.09
2019-04-30T00:38:18.378Z,98995.30
2019-04-30T00:43:21.779Z,98994.87
2019-04-30T00:48:29.662Z,98984.45
2019-04-30T00:53:30.137Z,98986.54
2019-04-30T00:58:33.445Z,98985.81
2019-04-30T01:03:39.442Z,98995.63
2019-04-30T01:08:43.418Z,98991.44
2019-04-30T01:13:52.544Z,98987.69
2019-04-30T01:18:51.760Z,98984.14
2019-04-30T01:23:55.060Z,98981.95
2019-04-30T01:29:01.862Z,98980.31
2019-04-30T01:34:05.112Z,98980.52
2019-04-30T01:39:09.466Z,98978.12
2019-04-30T01:44:12.814Z,98976.45
2019-04-30T01:49:16.119Z,98983.22
2019-04-30T01:54:23.981Z,98984.27
2019-04-30T01:59:26.081Z,98986.14
2019-04-30T02:04:31.517Z,98986.98
2019-04-30T02:09:34.478Z,98985.63
2019-04-30T02:14:39.473Z,98976.37
2019-04-30T02:19:54.072Z,98988.33
2019-04-30T02:24:48.664Z,98989.38
2019-04-30T02:29:52.030Z,98999.10
2019-04-30T02:34:59.679Z,98991.80
2019-04-30T02:40:02.127Z,98995.75
2019-04-30T02:45:10.136Z,98998.78
2019-04-30T02:50:18.300Z,99002.33
2019-04-30T02:55:20.613Z,98993.56
2019-04-30T03:00:24.001Z,98997.34
2019-04-30T03:05:27.314Z,99010.14
2019-04-30T03:10:30.618Z,99015.80
2019-04-30T03:15:33.948Z,99029.97
2019-04-30T03:20:41.648Z,99023.70
2019-04-30T03:25:44.980Z,99021.31
2019-04-30T03:30:56.201Z,99019.13
2019-04-30T03:35:54.605Z,99026.53
2019-04-30T03:41:00.255Z,99029.45
2019-04-30T03:46:03.745Z,99020.27
2019-04-30T03:51:07.070Z,99017.45
2019-04-30T03:56:10.407Z,99014.34
2019-04-30T04:01:19.640Z,99019.35
2019-04-30T04:06:24.075Z,99023.67
2019-04-30T04:11:29.855Z,99028.72
2019-04-30T04:16:33.246Z,99023.48
2019-04-30T04:21:39.215Z,99019.77
2019-04-30T04:26:43.957Z,99030.23
2019-04-30T04:31:49.767Z,99036.66
2019-04-30T04:36:51.716Z,99032.80
2019-04-30T04:41:55.048Z,99041.53
2019-04-30T04:47:00.190Z,99040.05
2019-04-30T04:52:03.605Z,99044.88
2019-04-30T04:57:14.898Z,99049.22
2019-04-30T05:02:32.112Z,99042.09
2019-04-30T05:07:33.596Z,99040.22
2019-04-30T05:12:37.967Z,99044.85
2019-04-30T05:17:42.015Z,99048.41
2019-04-30T05:22:45.319Z,99049.75
2019-04-30T05:27:48.931Z,99061.23
2019-04-30T05:32:52.329Z,99065.53
2019-04-30T05:37:55.633Z,99069.88
2019-04-30T05:43:00.395Z,99066.05
2019-04-30T05:48:03.806Z,99070.83
2019-04-30T05:53:08.910Z,99067.52
2019-04-30T05:58:12.357Z,99066.35
2019-04-30T06:03:25.127Z,99066.35
2019-04-30T06:08:22.402Z,99060.50
2019-04-30T06:13:32.018Z,99056.78
2019-04-30T06:18:35.395Z,99065.41
2019-04-30T06:23:39.381Z,99067.70
2019-04-30T06:28:42.678Z,99076.67
2019-04-30T06:33:45.983Z,99076.16
2019-04-30T06:38:49.288Z,99081.34
2019-04-30T06:43:52.787Z,99074.17
2019-04-30T06:48:56.090Z,99079.99
2019-04-30T06:53:59.384Z,99079.08
2019-04-30T06:59:02.691Z,99073.00
2019-04-30T07:04:05.981Z,99077.38
2019-04-30T07:09:10.916Z,99059.45
2019-04-30T07:14:26.209Z,99060.38
2019-04-30T07:19:34.690Z,99069.02
2019-04-30T07:24:34.610Z,99076.01
2019-04-30T07:29:39.307Z,99070.39
2019-04-30T07:34:42.702Z,99074.54
2019-04-30T07:39:46.013Z,99074.22
2019-04-30T07:44:50.225Z,99078.92
2019-04-30T07:49:55.958Z,99074.54
2019-04-30T07:55:00.673Z,99083.48
2019-04-30T08:00:04.902Z,99081.49
2019-04-30T08:05:10.552Z,99081.29
2019-04-30T08:10:14.019Z,99078.78
2019-04-30T08:15:19.626Z,99084.09
2019-04-30T08:20:22.423Z,99084.61
2019-04-30T08:25:25.722Z,99090.34
2019-04-30T08:30:29.989Z,99086.08
2019-04-30T08:35:33.546Z,99087.20
2019-04-30T08:40:36.870Z,99080.10
2019-04-30T08:45:40.215Z,99089.80
2019-04-30T08:50:43.560Z,99088.23
2019-04-30T08:55:46.892Z,99087.17
2019-04-30T09:00:50.234Z,99090.75
2019-04-30T09:05:55.206Z,99097.33
2019-04-30T09:10:59.524Z,99091.91
2019-04-30T09:16:02.926Z,99084.61
2019-04-30T09:21:06.597Z,99081.74
2019-04-30T09:26:11.590Z,99079.37
2019-04-30T09:31:14.931Z,99085.95
2019-04-30T09:36:20.591Z,99093.06
2019-04-30T09:41:23.321Z,99093.06
2019-04-30T09:46:27.308Z,99093.26
2019-04-30T09:51:32.119Z,99095.77
2019-04-30T09:56:35.822Z,99095.66
2019-04-30T10:01:39.137Z,99099.72
2019-04-30T10:06:42.447Z,99094.42
2019-04-30T10:11:49.847Z,99088.67
2019-04-30T10:17:10.077Z,99085.84
2019-04-30T10:22:13.703Z,99096.45
2019-04-30T10:27:19.145Z,99087.52
2019-04-30T10:32:22.144Z,99088.23
2019-04-30T10:37:25.463Z,99079.37
2019-04-30T10:42:28.976Z,99073.40
2019-04-30T10:47:32.796Z,99077.90
2019-04-30T10:52:36.172Z,99078.19
2019-04-30T10:57:39.820Z,99077.66
2019-04-30T11:02:43.215Z,99069.77
2019-04-30T11:07:46.546Z,99058.28
2019-04-30T11:12:49.882Z,99070.41
2019-04-30T11:17:53.348Z,99064.02
2019-04-30T11:22:57.036Z,99059.95
2019-04-30T11:28:01.262Z,99053.81
2019-04-30T11:33:05.149Z,99058.72
2019-04-30T11:38:08.570Z,99042.95
2019-04-30T11:43:11.914Z,99038.13
2019-04-30T11:48:15.318Z,99035.55
2019-04-30T11:53:25.251Z,99042.76
2019-04-30T11:58:23.678Z,99037.33
2019-04-30T12:03:30.092Z,99033.86
2019-04-30T12:08:33.722Z,99026.04
2019-04-30T12:13:37.041Z,99031.07
2019-04-30T12:18:40.344Z,99031.15
2019-04-30T12:23:43.655Z,99039.28
2019-04-30T12:28:46.958Z,99037.73
2019-04-30T12:33:50.261Z,99037.20
2019-04-30T12:38:53.583Z,99035.02
2019-04-30T12:43:56.948Z,99027.40
2019-04-30T12:49:11.005Z,99030.31
2019-04-30T12:54:18.853Z,99021.34
2019-04-30T12:59:22.168Z,99015.79
2019-04-30T13:04:25.514Z,99015.39
2019-04-30T13:09:30.246Z,99020.94
2019-04-30T13:14:39.421Z,99006.14
2019-04-30T13:19:39.172Z,99000.38
2019-04-30T13:24:42.570Z,98997.80
2019-04-30T13:29:53.522Z,98989.98
2019-04-30T13:35:00.643Z,98978.81
2019-04-30T13:40:10.387Z,98982.43
2019-04-30T13:45:13.863Z,98977.48
2019-04-30T13:50:19.685Z,98974.63
2019-04-30T13:55:22.334Z,98977.66
2019-04-30T14:00:29.954Z,98970.44
2019-04-30T14:05:33.417Z,98967.59
2019-04-30T14:10:39.272Z,98954.41
2019-04-30T14:15:42.843Z,98950.72
2019-04-30T14:20:46.256Z,98961.83
2019-04-30T14:25:56.309Z,98963.81
2019-04-30T14:30:54.671Z,98962.53
2019-04-30T14:36:00.593Z,98952.30
2019-04-30T14:41:03.779Z,98956.23
2019-04-30T14:46:21.466Z,98957.80
2019-04-30T14:51:25.048Z,98945.51
2019-04-30T14:56:39.405Z,98950.34
2019-04-30T15:01:51.724Z,98954.17
2019-04-30T15:06:55.106Z,98951.36
2019-04-30T15:11:58.680Z,98950.16
2019-04-30T15:17:01.996Z,98947.59
2019-04-30T15:22:05.314Z,98941.84
2019-04-30T15:27:09.269Z,98938.64
2019-04-30T15:32:12.768Z,98939.53
2019-04-30T15:37:21.665Z,98933.21
2019-04-30T15:42:21.869Z,98930.25
2019-04-30T15:47:25.283Z,98928.81
2019-04-30T15:52:28.872Z,98936.58
2019-04-30T15:57:32.215Z,98935.48
2019-04-30T16:02:38.789Z,98938.92
2019-04-30T16:07:43.851Z,98931.11
2019-04-30T16:12:54.830Z,98936.86
2019-04-30T16:17:59.820Z,98929.53
2019-04-30T16:23:03.141Z,98926.37
2019-04-30T16:28:08.524Z,98930.90
2019-04-30T16:33:12.071Z,98929.86
2019-04-30T16:38:15.374Z,98923.34
2019-04-30T16:43:20.373Z,98926.26
2019-04-30T16:48:23.773Z,98924.10
2019-04-30T16:53:27.102Z,98914.50
2019-04-30T16:58:32.055Z,98915.41
2019-04-30T17:03:38.834Z,98913.20
2019-04-30T17:08:43.854Z,98911.01
2019-04-30T17:13:48.781Z,98911.94
2019-04-30T17:18:52.078Z,98908.84
2019-04-30T17:23:55.423Z,98912.84
2019-04-30T17:28:59.825Z,98915.09
2019-04-30T17:34:03.343Z,98904.42
2019-04-30T17:39:11.012Z,98902.72
2019-04-30T17:44:14.334Z,98905.34
2019-04-30T17:49:18.946Z,98903.87
2019-04-30T17:54:22.418Z,98903.30
2019-04-30T17:59:25.755Z,98903.37
2019-04-30T18:04:29.734Z,98907.97
2019-04-30T18:09:33.150Z,98917.19
2019-04-30T18:14:36.500Z,98917.33
2019-04-30T18:19:57.906Z,98915.05
2019-04-30T18:25:02.885Z,98919.72
2019-04-30T18:30:08.283Z,98914.88
2019-04-30T18:35:11.677Z,98914.62
2019-04-30T18:40:15.167Z,98925.17
2019-04-30T18:45:19.441Z,98921.34
2019-04-30T18:50:23.015Z,98931.28
2019-04-30T18:55:26.461Z,98931.41
2019-04-30T19:00:39.396Z,98936.58
2019-04-30T19:05:43.843Z,98937.42
2019-04-30T19:10:58.903Z,98932.36
2019-04-30T19:16:19.685Z,98933.28
2019-04-30T19:21:12.037Z,98943.23
2019-04-30T19:26:15.355Z,98947.31
2019-04-30T19:31:19.922Z,98944.00
2019-04-30T19:36:34.956Z,98942.70
2019-04-30T19:41:28.796Z,98949.25
2019-04-30T19:46:33.346Z,98951.05
2019-04-30T19:51:36.695Z,98945.64
2019-04-30T19:56:40.035Z,98942.73
2019-04-30T20:01:43.373Z,98948.16
2019-04-30T20:06:48.602Z,98941.38
2019-04-30T20:11:51.768Z,98950.86
2019-04-30T20:16:55.083Z,98953.71
2019-04-30T20:21:59.513Z,98958.03
2019-04-30T20:27:07.001Z,98958.16
2019-04-30T20:32:08.654Z,98955.54
2019-04-30T20:37:12.063Z,98959.53
2019-04-30T20:42:15.403Z,98962.69
2019-04-30T20:47:21.050Z,98956.11
2019-04-30T20:52:23.744Z,98956.03
2019-04-30T20:57:27.067Z,98948.41
2019-04-30T21:02:30.389Z,98949.45
2019-04-30T21:07:33.699Z,98945.38
2019-04-30T21:12:37.024Z,98947.78
2019-04-30T21:17:40.332Z,98941.76
2019-04-30T21:22:43.645Z,98935.89
2019-04-30T21:27:46.974Z,98939.13
2019-04-30T21:32:51.921Z,98945.12
2019-04-30T21:37:56.881Z,98938.84
2019-04-30T21:43:00.203Z,98941.73
2019-04-30T21:48:03.505Z,98934.82
2019-04-30T21:53:06.835Z,98937.22
2019-04-30T21:58:10.139Z,98934.90
2019-04-30T22:03:13.555Z,98939.83
2019-04-30T22:08:18.807Z,98942.30
2019-04-30T22:13:21.991Z,98935.02
2019-04-30T22:18:25.312Z,98932.73
2019-04-30T22:23:28.705Z,98929.95
2019-04-30T22:28:32.030Z,98934.02
2019-04-30T22:33:35.421Z,98932.87
2019-04-30T22:38:42.833Z,98937.97
2019-04-30T22:43:46.226Z,98935.05
2019-04-30T22:48:49.547Z,98935.58
2019-04-30T22:53:52.873Z,98926.52
2019-04-30T22:58:56.202Z,98925.77
2019-04-30T23:04:01.175Z,98921.55
2019-04-30T23:09:05.453Z,98923.94
2019-04-30T23:14:08.792Z,98916.33
2019-04-30T23:19:12.137Z,98915.49
2019-04-30T23:24:15.492Z,98914.05
2019-04-30T23:29:18.807Z,98903.94
2019-04-30T23:34:22.202Z,98903.94
2019-04-30T23:39:25.548Z,98898.75
2019-04-30T23:44:28.891Z,98891.34
2019-04-30T23:49:32.233Z,98896.77
2019-04-30T23:54:35.576Z,98880.10
2019-04-30T23:59:38.920Z,98870.61
